Huvudsida
METAR-TAF:

METAR-TAF

Flygplatser :

Skaraborgs flygflottilj

Såtenäs, Sverige

latitud: 58-26N, longitud: 012-42E, höjd: 54 m

Aktuellt väderrapport

Denna rapport gjordes för 33 minuter sedan, klockan 18:20 UTC
Vind 13 kt från nord/nordväst
Temperatur 6°C
Fuktighet 87%
Tryck 998 hPa
Sikt 10 km eller mer

METAR: ESIB 231820Z AUTO 33013KT 9999 BKN090/// BKN110/// 06/04 Q0998

Tid: 20:53 (18:53 UTC)

Väderprognos

Denna rapport gjordes för 7 timmar och 23 minuter sedan, klockan 11:30 UTC
Prognos gäller från 23 kl. 12 UTC till 23 kl. 15 UTC
Vind 15 kt från nordväst i byarna ända upp till 25 kt
Sikt 10 km eller mer
Få moln på en höjd av 3300 ft
Sannolikhet 30%
från 23 kl. 13 UTC till 23 kl. 15 UTC
Brutna moln på en höjd av 4000 ft, Cumulonimbus.
lätta regnskurar

TAF: ESIB 231130Z 2312/2315 32015G25KT 9999 FEW033 PROB30 2313/2315 -SHRA BKN040CB RMK MIL

Aktuella väderrapporter och prognoser från 4000 flygplatser (METAR- och TAF-rapporter).

De tillgängliga stationerna syns som gula och röda prickar på kartan.

För musen över prickarna för att se namnen på stationerna.

Klicka sedan för att få väderrapporter och prognoser.

För att ändra kartan: Klicka på de gröna knapparna med ett svart kors på för att zooma in; den gröna knappen med ett streck på för att zooma ut; eller på de gröna pilarna för angränsande kartor.


METAR-TAF: